createdAt,value
2022-09-23T00:03:49.223Z,13.96
2022-09-23T00:23:49.495Z,13.94
2022-09-23T00:43:49.461Z,13.92
2022-09-23T01:03:49.209Z,13.9
2022-09-23T01:23:49.466Z,13.88
2022-09-23T01:43:49.430Z,13.87
2022-09-23T02:03:49.450Z,13.87
2022-09-23T02:23:49.389Z,13.86
2022-09-23T02:43:49.361Z,13.85
2022-09-23T03:03:49.349Z,13.82
2022-09-23T03:23:49.359Z,13.79
2022-09-23T03:43:49.338Z,13.77
2022-09-23T04:03:49.328Z,13.77
2022-09-23T04:23:49.308Z,13.76
2022-09-23T04:43:49.043Z,13.75
2022-09-23T05:03:49.287Z,13.72
2022-09-23T05:23:49.285Z,13.69
2022-09-23T05:43:49.267Z,13.67
2022-09-23T06:03:49.282Z,13.67
2022-09-23T08:03:49.153Z,13.56
2022-09-23T09:03:49.031Z,13.5
2022-09-23T09:23:49.040Z,13.48
2022-09-23T09:43:49.003Z,13.47
2022-09-23T10:43:48.844Z,13.46
2022-09-23T11:03:48.833Z,13.46
2022-09-23T11:23:48.821Z,13.46
2022-09-23T11:43:48.768Z,13.46
2022-09-23T12:03:48.819Z,13.46
2022-09-23T12:23:48.430Z,13.47
2022-09-23T12:43:48.682Z,13.48
2022-09-23T13:03:48.641Z,13.49
2022-09-23T13:23:48.663Z,13.51
2022-09-23T13:43:48.576Z,13.54
2022-09-23T14:03:48.576Z,13.56
2022-09-23T14:23:48.515Z,13.56
2022-09-23T14:43:48.506Z,13.58
2022-09-23T15:03:48.478Z,13.61
2022-09-23T15:23:48.424Z,13.64
2022-09-23T15:43:48.392Z,13.66
2022-09-23T16:03:48.360Z,13.67
2022-09-23T16:23:48.340Z,13.69
2022-09-23T16:43:48.301Z,13.73
2022-09-23T17:03:48.283Z,13.76
2022-09-23T17:23:48.254Z,13.77
2022-09-23T17:43:48.229Z,13.78
2022-09-23T18:03:48.247Z,13.8
2022-09-23T18:23:48.173Z,13.83
2022-09-23T18:43:48.773Z,13.86
2022-09-23T19:03:47.882Z,13.87
2022-09-23T19:23:48.097Z,13.87
2022-09-23T19:43:48.067Z,13.88
2022-09-23T20:03:48.053Z,13.89
2022-09-23T20:23:48.037Z,13.91
2022-09-23T20:43:48.005Z,13.93
2022-09-23T21:03:47.976Z,13.95
2022-09-23T21:23:47.955Z,13.96
2022-09-23T21:43:47.936Z,13.96
2022-09-23T22:03:47.884Z,13.97
2022-09-23T22:23:47.890Z,13.97
2022-09-23T23:03:47.931Z,13.97
2022-09-23T23:23:47.813Z,13.97
2022-09-23T23:43:47.787Z,13.97
